sensor_id;sensor_type;location;lat;lon;timestamp;P1;durP1;ratioP1;P2;durP2;ratioP2
12228;SDS011;6177;52.402;9.800;2022-11-21T00:02:23;11.83;;;10.63;;
12228;SDS011;6177;52.402;9.800;2022-11-21T00:05:07;12.07;;;10.83;;
12228;SDS011;6177;52.402;9.800;2022-11-21T00:07:53;11.70;;;10.60;;
12228;SDS011;6177;52.402;9.800;2022-11-21T00:10:37;12.80;;;11.20;;
12228;SDS011;6177;52.402;9.800;2022-11-21T00:13:23;12.17;;;10.37;;
12228;SDS011;6177;52.402;9.800;2022-11-21T00:16:09;12.20;;;11.10;;
12228;SDS011;6177;52.402;9.800;2022-11-21T00:18:55;12.00;;;10.70;;
12228;SDS011;6177;52.402;9.800;2022-11-21T00:21:40;11.93;;;10.83;;
12228;SDS011;6177;52.402;9.800;2022-11-21T00:24:25;11.47;;;10.37;;
12228;SDS011;6177;52.402;9.800;2022-11-21T00:27:10;12.33;;;11.13;;
12228;SDS011;6177;52.402;9.800;2022-11-21T00:29:54;12.30;;;11.20;;
12228;SDS011;6177;52.402;9.800;2022-11-21T00:32:39;13.07;;;11.57;;
12228;SDS011;6177;52.402;9.800;2022-11-21T00:35:24;12.80;;;11.57;;
12228;SDS011;6177;52.402;9.800;2022-11-21T00:38:08;13.07;;;11.57;;
12228;SDS011;6177;52.402;9.800;2022-11-21T00:40:53;13.03;;;11.83;;
12228;SDS011;6177;52.402;9.800;2022-11-21T00:43:37;12.90;;;11.60;;
12228;SDS011;6177;52.402;9.800;2022-11-21T00:46:22;13.13;;;11.83;;
12228;SDS011;6177;52.402;9.800;2022-11-21T00:49:07;13.07;;;11.73;;
12228;SDS011;6177;52.402;9.800;2022-11-21T00:51:51;13.37;;;12.07;;
12228;SDS011;6177;52.402;9.800;2022-11-21T00:54:36;14.73;;;13.33;;
12228;SDS011;6177;52.402;9.800;2022-11-21T00:57:20;14.73;;;13.23;;
12228;SDS011;6177;52.402;9.800;2022-11-21T01:00:05;15.60;;;14.00;;
12228;SDS011;6177;52.402;9.800;2022-11-21T01:02:50;14.23;;;12.93;;
12228;SDS011;6177;52.402;9.800;2022-11-21T01:05:35;15.13;;;13.63;;
12228;SDS011;6177;52.402;9.800;2022-11-21T01:08:19;15.07;;;13.53;;
12228;SDS011;6177;52.402;9.800;2022-11-21T01:11:05;13.90;;;12.50;;
12228;SDS011;6177;52.402;9.800;2022-11-21T01:13:51;14.57;;;13.13;;
12228;SDS011;6177;52.402;9.800;2022-11-21T01:16:37;15.73;;;13.47;;
12228;SDS011;6177;52.402;9.800;2022-11-21T01:19:22;15.07;;;13.57;;
12228;SDS011;6177;52.402;9.800;2022-11-21T01:22:07;15.43;;;13.93;;
12228;SDS011;6177;52.402;9.800;2022-11-21T01:24:51;15.33;;;13.73;;
12228;SDS011;6177;52.402;9.800;2022-11-21T01:27:36;15.17;;;13.73;;
12228;SDS011;6177;52.402;9.800;2022-11-21T01:30:20;15.50;;;14.00;;
12228;SDS011;6177;52.402;9.800;2022-11-21T01:33:05;15.83;;;14.13;;
12228;SDS011;6177;52.402;9.800;2022-11-21T01:35:49;15.43;;;13.83;;
12228;SDS011;6177;52.402;9.800;2022-11-21T01:38:34;15.40;;;13.93;;
12228;SDS011;6177;52.402;9.800;2022-11-21T01:41:20;13.63;;;12.33;;
12228;SDS011;6177;52.402;9.800;2022-11-21T01:44:26;15.53;;;13.97;;
12228;SDS011;6177;52.402;9.800;2022-11-21T01:47:28;15.43;;;13.77;;
12228;SDS011;6177;52.402;9.800;2022-11-21T01:50:13;17.27;;;13.30;;
12228;SDS011;6177;52.402;9.800;2022-11-21T01:52:57;15.60;;;14.10;;
12228;SDS011;6177;52.402;9.800;2022-11-21T01:55:42;17.53;;;15.60;;
12228;SDS011;6177;52.402;9.800;2022-11-21T01:58:27;16.70;;;15.00;;
12228;SDS011;6177;52.402;9.800;2022-11-21T02:01:14;17.47;;;15.60;;
12228;SDS011;6177;52.402;9.800;2022-11-21T02:03:59;18.83;;;16.27;;
12228;SDS011;6177;52.402;9.800;2022-11-21T02:06:46;16.30;;;14.67;;
12228;SDS011;6177;52.402;9.800;2022-11-21T02:09:31;16.60;;;14.87;;
12228;SDS011;6177;52.402;9.800;2022-11-21T02:12:28;18.47;;;16.30;;
12228;SDS011;6177;52.402;9.800;2022-11-21T02:15:32;19.57;;;16.83;;
12228;SDS011;6177;52.402;9.800;2022-11-21T02:18:16;19.83;;;17.33;;
12228;SDS011;6177;52.402;9.800;2022-11-21T02:21:26;19.50;;;17.40;;
12228;SDS011;6177;52.402;9.800;2022-11-21T02:24:32;20.67;;;17.93;;
12228;SDS011;6177;52.402;9.800;2022-11-21T02:27:25;22.03;;;18.20;;
12228;SDS011;6177;52.402;9.800;2022-11-21T02:30:09;20.73;;;17.97;;
12228;SDS011;6177;52.402;9.800;2022-11-21T02:32:55;22.73;;;19.23;;
12228;SDS011;6177;52.402;9.800;2022-11-21T02:35:39;22.03;;;18.73;;
12228;SDS011;6177;52.402;9.800;2022-11-21T02:38:26;21.77;;;18.67;;
12228;SDS011;6177;52.402;9.800;2022-11-21T02:41:19;21.70;;;19.23;;
12228;SDS011;6177;52.402;9.800;2022-11-21T02:44:14;24.47;;;19.57;;
12228;SDS011;6177;52.402;9.800;2022-11-21T02:47:05;21.23;;;18.97;;
12228;SDS011;6177;52.402;9.800;2022-11-21T02:49:53;22.30;;;19.03;;
12228;SDS011;6177;52.402;9.800;2022-11-21T02:52:48;24.20;;;21.43;;
12228;SDS011;6177;52.402;9.800;2022-11-21T02:55:32;22.50;;;20.10;;
12228;SDS011;6177;52.402;9.800;2022-11-21T02:58:17;21.00;;;18.73;;
12228;SDS011;6177;52.402;9.800;2022-11-21T03:01:02;22.53;;;19.77;;
12228;SDS011;6177;52.402;9.800;2022-11-21T03:03:47;22.83;;;19.87;;
12228;SDS011;6177;52.402;9.800;2022-11-21T03:09:28;22.90;;;20.33;;
12228;SDS011;6177;52.402;9.800;2022-11-21T03:12:13;24.20;;;20.30;;
12228;SDS011;6177;52.402;9.800;2022-11-21T03:14:58;21.83;;;19.43;;
12228;SDS011;6177;52.402;9.800;2022-11-21T03:17:43;26.00;;;21.13;;
12228;SDS011;6177;52.402;9.800;2022-11-21T03:20:32;24.87;;;21.17;;
12228;SDS011;6177;52.402;9.800;2022-11-21T03:23:17;27.03;;;21.00;;
12228;SDS011;6177;52.402;9.800;2022-11-21T03:26:02;25.63;;;21.20;;
12228;SDS011;6177;52.402;9.800;2022-11-21T03:28:46;29.20;;;22.70;;
12228;SDS011;6177;52.402;9.800;2022-11-21T03:31:31;27.20;;;22.03;;
12228;SDS011;6177;52.402;9.800;2022-11-21T03:34:16;30.10;;;23.30;;
12228;SDS011;6177;52.402;9.800;2022-11-21T03:37:01;29.77;;;23.10;;
12228;SDS011;6177;52.402;9.800;2022-11-21T03:39:46;29.33;;;22.87;;
12228;SDS011;6177;52.402;9.800;2022-11-21T03:42:30;28.67;;;22.37;;
12228;SDS011;6177;52.402;9.800;2022-11-21T03:45:15;33.57;;;24.50;;
12228;SDS011;6177;52.402;9.800;2022-11-21T03:48:00;28.37;;;22.40;;
12228;SDS011;6177;52.402;9.800;2022-11-21T03:50:44;28.87;;;23.03;;
12228;SDS011;6177;52.402;9.800;2022-11-21T03:53:29;32.83;;;23.93;;
12228;SDS011;6177;52.402;9.800;2022-11-21T03:56:14;38.50;;;26.00;;
12228;SDS011;6177;52.402;9.800;2022-11-21T03:58:58;36.93;;;25.80;;
12228;SDS011;6177;52.402;9.800;2022-11-21T04:01:43;39.23;;;26.27;;
12228;SDS011;6177;52.402;9.800;2022-11-21T04:04:27;33.03;;;24.50;;
12228;SDS011;6177;52.402;9.800;2022-11-21T04:07:12;39.43;;;26.37;;
12228;SDS011;6177;52.402;9.800;2022-11-21T04:09:56;39.60;;;25.97;;
12228;SDS011;6177;52.402;9.800;2022-11-21T04:12:41;39.00;;;25.83;;
12228;SDS011;6177;52.402;9.800;2022-11-21T04:15:26;35.13;;;24.90;;
12228;SDS011;6177;52.402;9.800;2022-11-21T04:18:10;39.27;;;25.83;;
12228;SDS011;6177;52.402;9.800;2022-11-21T04:20:59;40.73;;;27.07;;
12228;SDS011;6177;52.402;9.800;2022-11-21T04:23:45;48.23;;;26.67;;
12228;SDS011;6177;52.402;9.800;2022-11-21T04:26:29;49.07;;;26.73;;
12228;SDS011;6177;52.402;9.800;2022-11-21T04:29:14;61.23;;;27.67;;
12228;SDS011;6177;52.402;9.800;2022-11-21T04:31:59;56.67;;;27.33;;
12228;SDS011;6177;52.402;9.800;2022-11-21T04:34:43;45.97;;;27.33;;
12228;SDS011;6177;52.402;9.800;2022-11-21T04:37:28;41.50;;;25.43;;
12228;SDS011;6177;52.402;9.800;2022-11-21T04:40:13;155.47;;;36.73;;
12228;SDS011;6177;52.402;9.800;2022-11-21T04:42:59;59.30;;;29.97;;
12228;SDS011;6177;52.402;9.800;2022-11-21T04:45:43;49.10;;;26.60;;
12228;SDS011;6177;52.402;9.800;2022-11-21T04:48:28;42.83;;;26.13;;
12228;SDS011;6177;52.402;9.800;2022-11-21T04:51:13;51.20;;;27.33;;
12228;SDS011;6177;52.402;9.800;2022-11-21T04:53:57;39.03;;;25.47;;
12228;SDS011;6177;52.402;9.800;2022-11-21T04:56:42;37.40;;;25.67;;
12228;SDS011;6177;52.402;9.800;2022-11-21T04:59:26;36.40;;;24.70;;
12228;SDS011;6177;52.402;9.800;2022-11-21T05:02:11;42.13;;;26.27;;
12228;SDS011;6177;52.402;9.800;2022-11-21T05:04:56;32.90;;;23.63;;
12228;SDS011;6177;52.402;9.800;2022-11-21T05:07:40;34.57;;;25.33;;
12228;SDS011;6177;52.402;9.800;2022-11-21T05:10:25;31.37;;;23.97;;
12228;SDS011;6177;52.402;9.800;2022-11-21T05:13:09;36.57;;;24.43;;
12228;SDS011;6177;52.402;9.800;2022-11-21T05:16:06;35.20;;;24.07;;
12228;SDS011;6177;52.402;9.800;2022-11-21T05:18:50;39.47;;;26.67;;
12228;SDS011;6177;52.402;9.800;2022-11-21T05:21:35;38.70;;;26.60;;
12228;SDS011;6177;52.402;9.800;2022-11-21T05:24:19;41.47;;;28.10;;
12228;SDS011;6177;52.402;9.800;2022-11-21T05:27:04;36.57;;;26.07;;
12228;SDS011;6177;52.402;9.800;2022-11-21T05:29:49;37.23;;;27.10;;
12228;SDS011;6177;52.402;9.800;2022-11-21T05:32:33;34.23;;;25.20;;
12228;SDS011;6177;52.402;9.800;2022-11-21T05:35:18;31.87;;;23.27;;
12228;SDS011;6177;52.402;9.800;2022-11-21T05:38:03;30.73;;;23.47;;
12228;SDS011;6177;52.402;9.800;2022-11-21T05:40:47;30.17;;;23.23;;
12228;SDS011;6177;52.402;9.800;2022-11-21T05:43:32;32.53;;;24.67;;
12228;SDS011;6177;52.402;9.800;2022-11-21T05:46:29;41.60;;;25.47;;
12228;SDS011;6177;52.402;9.800;2022-11-21T05:49:13;37.30;;;26.17;;
12228;SDS011;6177;52.402;9.800;2022-11-21T05:51:58;34.30;;;25.73;;
12228;SDS011;6177;52.402;9.800;2022-11-21T05:54:43;58.77;;;27.27;;
12228;SDS011;6177;52.402;9.800;2022-11-21T05:57:28;137.60;;;35.27;;
12228;SDS011;6177;52.402;9.800;2022-11-21T06:00:14;72.03;;;26.13;;
12228;SDS011;6177;52.402;9.800;2022-11-21T06:02:59;115.23;;;31.10;;
12228;SDS011;6177;52.402;9.800;2022-11-21T06:06:03;72.73;;;28.10;;
12228;SDS011;6177;52.402;9.800;2022-11-21T06:08:53;182.40;;;36.33;;
12228;SDS011;6177;52.402;9.800;2022-11-21T06:11:37;86.37;;;29.03;;
12228;SDS011;6177;52.402;9.800;2022-11-21T06:14:22;89.40;;;32.43;;
12228;SDS011;6177;52.402;9.800;2022-11-21T06:17:06;143.63;;;30.87;;
12228;SDS011;6177;52.402;9.800;2022-11-21T06:19:51;78.13;;;26.77;;
12228;SDS011;6177;52.402;9.800;2022-11-21T06:22:36;80.30;;;26.57;;
12228;SDS011;6177;52.402;9.800;2022-11-21T06:25:20;113.40;;;29.70;;
12228;SDS011;6177;52.402;9.800;2022-11-21T06:28:05;74.90;;;26.53;;
12228;SDS011;6177;52.402;9.800;2022-11-21T06:30:49;224.60;;;38.07;;
12228;SDS011;6177;52.402;9.800;2022-11-21T06:33:35;103.13;;;28.30;;
12228;SDS011;6177;52.402;9.800;2022-11-21T06:36:20;181.30;;;32.30;;
12228;SDS011;6177;52.402;9.800;2022-11-21T06:39:05;251.43;;;37.60;;
12228;SDS011;6177;52.402;9.800;2022-11-21T06:41:50;270.87;;;42.20;;
12228;SDS011;6177;52.402;9.800;2022-11-21T06:44:34;128.07;;;31.60;;
12228;SDS011;6177;52.402;9.800;2022-11-21T06:47:19;162.67;;;33.77;;
12228;SDS011;6177;52.402;9.800;2022-11-21T06:50:03;203.40;;;33.33;;
12228;SDS011;6177;52.402;9.800;2022-11-21T06:52:48;103.13;;;30.47;;
12228;SDS011;6177;52.402;9.800;2022-11-21T06:55:33;138.37;;;33.60;;
12228;SDS011;6177;52.402;9.800;2022-11-21T06:58:17;319.80;;;46.40;;
12228;SDS011;6177;52.402;9.800;2022-11-21T07:01:06;208.57;;;37.67;;
12228;SDS011;6177;52.402;9.800;2022-11-21T07:03:52;113.73;;;32.37;;
12228;SDS011;6177;52.402;9.800;2022-11-21T07:06:37;121.60;;;30.77;;
12228;SDS011;6177;52.402;9.800;2022-11-21T07:09:21;112.80;;;32.70;;
12228;SDS011;6177;52.402;9.800;2022-11-21T07:12:06;115.70;;;31.93;;
12228;SDS011;6177;52.402;9.800;2022-11-21T07:15:10;65.47;;;27.67;;
12228;SDS011;6177;52.402;9.800;2022-11-21T07:17:56;63.70;;;25.13;;
12228;SDS011;6177;52.402;9.800;2022-11-21T07:20:41;93.33;;;27.70;;
12228;SDS011;6177;52.402;9.800;2022-11-21T07:23:26;80.97;;;26.13;;
12228;SDS011;6177;52.402;9.800;2022-11-21T07:26:11;76.10;;;26.10;;
12228;SDS011;6177;52.402;9.800;2022-11-21T07:28:57;147.57;;;29.93;;
12228;SDS011;6177;52.402;9.800;2022-11-21T07:31:41;128.87;;;26.90;;
12228;SDS011;6177;52.402;9.800;2022-11-21T07:34:26;138.07;;;27.67;;
12228;SDS011;6177;52.402;9.800;2022-11-21T07:37:10;138.17;;;32.10;;
12228;SDS011;6177;52.402;9.800;2022-11-21T07:39:55;122.77;;;29.30;;
12228;SDS011;6177;52.402;9.800;2022-11-21T07:42:39;209.03;;;39.77;;
12228;SDS011;6177;52.402;9.800;2022-11-21T07:45:24;194.07;;;32.13;;
12228;SDS011;6177;52.402;9.800;2022-11-21T07:48:09;115.67;;;27.90;;
12228;SDS011;6177;52.402;9.800;2022-11-21T07:50:54;93.33;;;27.23;;
12228;SDS011;6177;52.402;9.800;2022-11-21T07:53:39;120.13;;;30.63;;
12228;SDS011;6177;52.402;9.800;2022-11-21T07:56:24;56.27;;;25.60;;
12228;SDS011;6177;52.402;9.800;2022-11-21T07:59:09;101.17;;;31.20;;
12228;SDS011;6177;52.402;9.800;2022-11-21T08:01:55;71.73;;;29.30;;
12228;SDS011;6177;52.402;9.800;2022-11-21T08:04:39;49.10;;;24.23;;
12228;SDS011;6177;52.402;9.800;2022-11-21T08:07:24;76.27;;;28.47;;
12228;SDS011;6177;52.402;9.800;2022-11-21T08:10:09;53.53;;;25.87;;
12228;SDS011;6177;52.402;9.800;2022-11-21T08:12:53;46.13;;;23.97;;
12228;SDS011;6177;52.402;9.800;2022-11-21T08:15:38;50.87;;;26.33;;
12228;SDS011;6177;52.402;9.800;2022-11-21T08:18:23;40.00;;;25.73;;
12228;SDS011;6177;52.402;9.800;2022-11-21T08:21:07;47.20;;;28.33;;
12228;SDS011;6177;52.402;9.800;2022-11-21T08:23:52;45.57;;;28.37;;
12228;SDS011;6177;52.402;9.800;2022-11-21T08:26:37;34.53;;;24.43;;
12228;SDS011;6177;52.402;9.800;2022-11-21T08:29:22;40.17;;;27.73;;
12228;SDS011;6177;52.402;9.800;2022-11-21T08:32:06;37.87;;;26.43;;
12228;SDS011;6177;52.402;9.800;2022-11-21T08:34:51;33.80;;;25.50;;
12228;SDS011;6177;52.402;9.800;2022-11-21T08:37:36;35.17;;;25.27;;
12228;SDS011;6177;52.402;9.800;2022-11-21T08:40:20;32.17;;;25.73;;
12228;SDS011;6177;52.402;9.800;2022-11-21T08:43:05;29.53;;;22.97;;
12228;SDS011;6177;52.402;9.800;2022-11-21T08:45:51;27.87;;;22.00;;
12228;SDS011;6177;52.402;9.800;2022-11-21T08:48:37;29.63;;;23.77;;
12228;SDS011;6177;52.402;9.800;2022-11-21T08:51:21;27.73;;;22.23;;
12228;SDS011;6177;52.402;9.800;2022-11-21T08:54:07;26.27;;;21.97;;
12228;SDS011;6177;52.402;9.800;2022-11-21T08:56:52;27.77;;;23.00;;
12228;SDS011;6177;52.402;9.800;2022-11-21T08:59:37;29.43;;;22.57;;
12228;SDS011;6177;52.402;9.800;2022-11-21T09:02:21;25.93;;;22.23;;
12228;SDS011;6177;52.402;9.800;2022-11-21T09:05:06;25.70;;;21.10;;
12228;SDS011;6177;52.402;9.800;2022-11-21T09:07:55;26.10;;;21.07;;
12228;SDS011;6177;52.402;9.800;2022-11-21T09:10:40;26.97;;;21.53;;
12228;SDS011;6177;52.402;9.800;2022-11-21T09:13:26;28.43;;;21.03;;
12228;SDS011;6177;52.402;9.800;2022-11-21T09:16:10;21.97;;;19.57;;
12228;SDS011;6177;52.402;9.800;2022-11-21T09:19:14;26.47;;;20.57;;
12228;SDS011;6177;52.402;9.800;2022-11-21T09:21:58;20.83;;;18.20;;
12228;SDS011;6177;52.402;9.800;2022-11-21T09:24:43;23.87;;;19.53;;
12228;SDS011;6177;52.402;9.800;2022-11-21T09:27:28;21.53;;;19.23;;
12228;SDS011;6177;52.402;9.800;2022-11-21T09:30:14;19.10;;;17.10;;
12228;SDS011;6177;52.402;9.800;2022-11-21T09:33:03;19.33;;;17.33;;
12228;SDS011;6177;52.402;9.800;2022-11-21T09:35:49;19.93;;;17.50;;
12228;SDS011;6177;52.402;9.800;2022-11-21T09:38:34;18.80;;;16.80;;
12228;SDS011;6177;52.402;9.800;2022-11-21T09:47:37;19.87;;;16.53;;
12228;SDS011;6177;52.402;9.800;2022-11-21T09:50:35;17.00;;;14.60;;
12228;SDS011;6177;52.402;9.800;2022-11-21T09:53:25;16.83;;;15.13;;
12228;SDS011;6177;52.402;9.800;2022-11-21T09:56:14;15.53;;;13.93;;
12228;SDS011;6177;52.402;9.800;2022-11-21T10:02:13;14.67;;;13.17;;
12228;SDS011;6177;52.402;9.800;2022-11-21T10:05:00;15.37;;;13.73;;
12228;SDS011;6177;52.402;9.800;2022-11-21T10:07:45;15.80;;;14.20;;
12228;SDS011;6177;52.402;9.800;2022-11-21T10:10:42;14.97;;;13.47;;
12228;SDS011;6177;52.402;9.800;2022-11-21T10:16:43;14.83;;;13.10;;
12228;SDS011;6177;52.402;9.800;2022-11-21T10:19:38;13.83;;;12.43;;
12228;SDS011;6177;52.402;9.800;2022-11-21T10:23:07;15.60;;;13.90;;
12228;SDS011;6177;52.402;9.800;2022-11-21T10:26:15;15.00;;;13.50;;
12228;SDS011;6177;52.402;9.800;2022-11-21T10:29:10;15.27;;;13.73;;
12228;SDS011;6177;52.402;9.800;2022-11-21T10:32:25;14.20;;;12.87;;
12228;SDS011;6177;52.402;9.800;2022-11-21T10:35:14;15.33;;;13.73;;
12228;SDS011;6177;52.402;9.800;2022-11-21T10:38:04;15.10;;;13.37;;
12228;SDS011;6177;52.402;9.800;2022-11-21T10:41:04;14.47;;;12.87;;
12228;SDS011;6177;52.402;9.800;2022-11-21T10:44:25;14.90;;;13.40;;
12228;SDS011;6177;52.402;9.800;2022-11-21T10:47:30;14.50;;;12.57;;
12228;SDS011;6177;52.402;9.800;2022-11-21T10:53:17;16.03;;;13.80;;
12228;SDS011;6177;52.402;9.800;2022-11-21T10:56:22;18.57;;;14.73;;
12228;SDS011;6177;52.402;9.800;2022-11-21T10:59:18;17.50;;;15.30;;
12228;SDS011;6177;52.402;9.800;2022-11-21T11:11:20;16.20;;;14.50;;
12228;SDS011;6177;52.402;9.800;2022-11-21T11:14:05;17.40;;;15.10;;
12228;SDS011;6177;52.402;9.800;2022-11-21T11:16:55;15.23;;;13.83;;
12228;SDS011;6177;52.402;9.800;2022-11-21T11:19:40;18.70;;;16.70;;
12228;SDS011;6177;52.402;9.800;2022-11-21T11:22:45;15.87;;;13.77;;
12228;SDS011;6177;52.402;9.800;2022-11-21T11:25:33;16.27;;;14.03;;
12228;SDS011;6177;52.402;9.800;2022-11-21T11:28:18;15.37;;;13.77;;
12228;SDS011;6177;52.402;9.800;2022-11-21T11:31:03;15.43;;;13.63;;
12228;SDS011;6177;52.402;9.800;2022-11-21T11:33:49;15.10;;;13.60;;
12228;SDS011;6177;52.402;9.800;2022-11-21T11:36:44;16.70;;;14.83;;
12228;SDS011;6177;52.402;9.800;2022-11-21T11:39:39;16.20;;;14.57;;
12228;SDS011;6177;52.402;9.800;2022-11-21T11:52:58;13.17;;;11.83;;
12228;SDS011;6177;52.402;9.800;2022-11-21T11:59:17;12.23;;;10.97;;
12228;SDS011;6177;52.402;9.800;2022-11-21T12:02:25;11.00;;;10.00;;
12228;SDS011;6177;52.402;9.800;2022-11-21T12:05:18;10.07;;;9.00;;
12228;SDS011;6177;52.402;9.800;2022-11-21T12:08:15;9.33;;;8.50;;
12228;SDS011;6177;52.402;9.800;2022-11-21T12:11:08;9.20;;;8.27;;
12228;SDS011;6177;52.402;9.800;2022-11-21T12:24:02;9.00;;;8.23;;
12228;SDS011;6177;52.402;9.800;2022-11-21T12:30:02;8.83;;;8.13;;
12228;SDS011;6177;52.402;9.800;2022-11-21T12:39:24;11.77;;;10.67;;
12228;SDS011;6177;52.402;9.800;2022-11-21T12:42:45;12.90;;;11.70;;
12228;SDS011;6177;52.402;9.800;2022-11-21T12:46:14;12.37;;;11.27;;
12228;SDS011;6177;52.402;9.800;2022-11-21T12:49:13;11.83;;;10.77;;
12228;SDS011;6177;52.402;9.800;2022-11-21T12:52:22;10.33;;;9.50;;
12228;SDS011;6177;52.402;9.800;2022-11-21T12:55:38;11.23;;;10.13;;
12228;SDS011;6177;52.402;9.800;2022-11-21T12:58:30;11.00;;;10.00;;
12228;SDS011;6177;52.402;9.800;2022-11-21T13:01:30;10.67;;;9.80;;
12228;SDS011;6177;52.402;9.800;2022-11-21T13:04:33;10.90;;;9.67;;
12228;SDS011;6177;52.402;9.800;2022-11-21T13:07:26;8.90;;;8.20;;
12228;SDS011;6177;52.402;9.800;2022-11-21T13:10:14;9.93;;;9.03;;
12228;SDS011;6177;52.402;9.800;2022-11-21T13:13:13;10.00;;;9.20;;
12228;SDS011;6177;52.402;9.800;2022-11-21T13:16:10;8.80;;;8.10;;
12228;SDS011;6177;52.402;9.800;2022-11-21T13:19:22;8.00;;;7.50;;
12228;SDS011;6177;52.402;9.800;2022-11-21T13:23:33;7.90;;;7.20;;
12228;SDS011;6177;52.402;9.800;2022-11-21T13:25:37;7.00;;;6.50;;
12228;SDS011;6177;52.402;9.800;2022-11-21T13:28:27;7.20;;;6.63;;
12228;SDS011;6177;52.402;9.800;2022-11-21T13:31:30;7.40;;;6.80;;
12228;SDS011;6177;52.402;9.800;2022-11-21T13:34:34;7.00;;;6.60;;
12228;SDS011;6177;52.402;9.800;2022-11-21T13:40:36;7.40;;;6.90;;
12228;SDS011;6177;52.402;9.800;2022-11-21T13:43:23;7.63;;;7.10;;
12228;SDS011;6177;52.402;9.800;2022-11-21T13:46:09;6.23;;;5.83;;
12228;SDS011;6177;52.402;9.800;2022-11-21T13:52:26;6.27;;;5.87;;
12228;SDS011;6177;52.402;9.800;2022-11-21T14:01:31;6.17;;;5.77;;
12228;SDS011;6177;52.402;9.800;2022-11-21T14:07:15;6.37;;;5.87;;
12228;SDS011;6177;52.402;9.800;2022-11-21T14:13:15;5.63;;;5.13;;
12228;SDS011;6177;52.402;9.800;2022-11-21T14:19:05;5.13;;;4.73;;
12228;SDS011;6177;52.402;9.800;2022-11-21T14:21:58;6.07;;;5.67;;
12228;SDS011;6177;52.402;9.800;2022-11-21T14:24:44;6.43;;;5.93;;
12228;SDS011;6177;52.402;9.800;2022-11-21T14:27:32;6.27;;;5.87;;
12228;SDS011;6177;52.402;9.800;2022-11-21T14:30:35;5.90;;;5.50;;
12228;SDS011;6177;52.402;9.800;2022-11-21T14:36:22;6.97;;;6.43;;
12228;SDS011;6177;52.402;9.800;2022-11-21T14:39:13;6.30;;;5.90;;
12228;SDS011;6177;52.402;9.800;2022-11-21T14:42:01;6.80;;;6.30;;
12228;SDS011;6177;52.402;9.800;2022-11-21T14:44:57;6.53;;;6.03;;
12228;SDS011;6177;52.402;9.800;2022-11-21T14:47:59;7.33;;;6.73;;
12228;SDS011;6177;52.402;9.800;2022-11-21T14:50:44;6.87;;;6.37;;
12228;SDS011;6177;52.402;9.800;2022-11-21T14:53:29;5.77;;;5.43;;
12228;SDS011;6177;52.402;9.800;2022-11-21T14:56:20;7.00;;;6.50;;
12228;SDS011;6177;52.402;9.800;2022-11-21T14:59:17;6.77;;;6.37;;
12228;SDS011;6177;52.402;9.800;2022-11-21T15:02:11;6.83;;;6.33;;
12228;SDS011;6177;52.402;9.800;2022-11-21T15:05:12;7.67;;;7.10;;
12228;SDS011;6177;52.402;9.800;2022-11-21T15:07:58;7.93;;;7.23;;
12228;SDS011;6177;52.402;9.800;2022-11-21T15:10:43;8.07;;;7.47;;
12228;SDS011;6177;52.402;9.800;2022-11-21T15:13:28;8.53;;;7.77;;
12228;SDS011;6177;52.402;9.800;2022-11-21T15:16:19;8.10;;;7.40;;
12228;SDS011;6177;52.402;9.800;2022-11-21T15:19:07;7.93;;;7.33;;
12228;SDS011;6177;52.402;9.800;2022-11-21T15:21:54;8.33;;;7.57;;
12228;SDS011;6177;52.402;9.800;2022-11-21T15:24:41;8.50;;;7.90;;
12228;SDS011;6177;52.402;9.800;2022-11-21T15:35:51;9.10;;;8.40;;
12228;SDS011;6177;52.402;9.800;2022-11-21T15:41:46;9.53;;;8.70;;
12228;SDS011;6177;52.402;9.800;2022-11-21T15:44:30;10.70;;;9.70;;
12228;SDS011;6177;52.402;9.800;2022-11-21T15:47:16;10.17;;;9.37;;
12228;SDS011;6177;52.402;9.800;2022-11-21T15:50:00;11.17;;;10.07;;
12228;SDS011;6177;52.402;9.800;2022-11-21T15:52:45;10.97;;;9.90;;
12228;SDS011;6177;52.402;9.800;2022-11-21T15:55:31;10.10;;;9.30;;
12228;SDS011;6177;52.402;9.800;2022-11-21T15:58:16;10.53;;;9.63;;
12228;SDS011;6177;52.402;9.800;2022-11-21T16:01:01;11.17;;;10.10;;
12228;SDS011;6177;52.402;9.800;2022-11-21T16:03:49;12.20;;;11.10;;
12228;SDS011;6177;52.402;9.800;2022-11-21T16:06:44;13.17;;;11.70;;
12228;SDS011;6177;52.402;9.800;2022-11-21T16:09:29;13.20;;;11.90;;
12228;SDS011;6177;52.402;9.800;2022-11-21T16:12:14;11.73;;;10.73;;
12228;SDS011;6177;52.402;9.800;2022-11-21T16:14:58;11.57;;;10.57;;
12228;SDS011;6177;52.402;9.800;2022-11-21T16:17:43;11.70;;;10.70;;
12228;SDS011;6177;52.402;9.800;2022-11-21T16:20:28;11.23;;;10.20;;
12228;SDS011;6177;52.402;9.800;2022-11-21T16:23:13;12.30;;;11.20;;
12228;SDS011;6177;52.402;9.800;2022-11-21T16:25:58;13.37;;;12.17;;
12228;SDS011;6177;52.402;9.800;2022-11-21T16:28:43;13.50;;;12.30;;
12228;SDS011;6177;52.402;9.800;2022-11-21T16:31:28;12.73;;;11.50;;
12228;SDS011;6177;52.402;9.800;2022-11-21T16:34:17;11.03;;;10.17;;
12228;SDS011;6177;52.402;9.800;2022-11-21T16:37:03;10.67;;;9.77;;
12228;SDS011;6177;52.402;9.800;2022-11-21T16:39:51;9.73;;;8.93;;
12228;SDS011;6177;52.402;9.800;2022-11-21T16:42:36;10.83;;;10.03;;
12228;SDS011;6177;52.402;9.800;2022-11-21T16:45:20;10.50;;;9.70;;
12228;SDS011;6177;52.402;9.800;2022-11-21T16:48:05;9.67;;;8.90;;
12228;SDS011;6177;52.402;9.800;2022-11-21T16:50:49;9.53;;;8.73;;
12228;SDS011;6177;52.402;9.800;2022-11-21T16:53:34;10.13;;;9.23;;
12228;SDS011;6177;52.402;9.800;2022-11-21T16:56:18;9.73;;;8.90;;
12228;SDS011;6177;52.402;9.800;2022-11-21T16:59:03;9.40;;;8.70;;
12228;SDS011;6177;52.402;9.800;2022-11-21T17:01:48;9.50;;;8.80;;
12228;SDS011;6177;52.402;9.800;2022-11-21T17:04:35;8.97;;;8.27;;
12228;SDS011;6177;52.402;9.800;2022-11-21T17:07:23;10.10;;;9.20;;
12228;SDS011;6177;52.402;9.800;2022-11-21T17:10:16;9.57;;;8.77;;
12228;SDS011;6177;52.402;9.800;2022-11-21T17:13:01;9.83;;;8.93;;
12228;SDS011;6177;52.402;9.800;2022-11-21T17:15:46;8.77;;;8.00;;
12228;SDS011;6177;52.402;9.800;2022-11-21T17:18:30;9.73;;;8.77;;
12228;SDS011;6177;52.402;9.800;2022-11-21T17:21:15;11.00;;;10.10;;
12228;SDS011;6177;52.402;9.800;2022-11-21T17:23:59;9.80;;;8.87;;
12228;SDS011;6177;52.402;9.800;2022-11-21T17:26:44;10.37;;;9.53;;
12228;SDS011;6177;52.402;9.800;2022-11-21T17:29:29;9.97;;;9.00;;
12228;SDS011;6177;52.402;9.800;2022-11-21T17:32:16;10.70;;;9.60;;
12228;SDS011;6177;52.402;9.800;2022-11-21T17:35:00;11.50;;;10.40;;
12228;SDS011;6177;52.402;9.800;2022-11-21T17:37:45;11.87;;;10.30;;
12228;SDS011;6177;52.402;9.800;2022-11-21T17:40:29;13.50;;;11.43;;
12228;SDS011;6177;52.402;9.800;2022-11-21T17:43:14;15.60;;;11.50;;
12228;SDS011;6177;52.402;9.800;2022-11-21T17:45:59;11.80;;;10.60;;
12228;SDS011;6177;52.402;9.800;2022-11-21T17:48:46;14.47;;;11.60;;
12228;SDS011;6177;52.402;9.800;2022-11-21T17:51:33;13.83;;;12.23;;
12228;SDS011;6177;52.402;9.800;2022-11-21T17:54:17;12.83;;;11.73;;
12228;SDS011;6177;52.402;9.800;2022-11-21T17:57:02;11.60;;;10.60;;
12228;SDS011;6177;52.402;9.800;2022-11-21T17:59:46;13.50;;;11.90;;
12228;SDS011;6177;52.402;9.800;2022-11-21T18:02:31;13.10;;;11.83;;
12228;SDS011;6177;52.402;9.800;2022-11-21T18:05:16;13.00;;;11.63;;
12228;SDS011;6177;52.402;9.800;2022-11-21T18:08:00;12.30;;;11.20;;
12228;SDS011;6177;52.402;9.800;2022-11-21T18:10:50;14.70;;;13.20;;
12228;SDS011;6177;52.402;9.800;2022-11-21T18:13:37;13.87;;;12.33;;
12228;SDS011;6177;52.402;9.800;2022-11-21T18:16:22;13.40;;;12.00;;
12228;SDS011;6177;52.402;9.800;2022-11-21T18:19:10;13.30;;;11.90;;
12228;SDS011;6177;52.402;9.800;2022-11-21T18:21:56;13.10;;;11.80;;